PANC/ANC METAR and TAF weather

Enter ICAO airport designator
Station Type Date Time Source
PANC METAR 2019/11/18 10:53 UTC NOAA

PANC 181053Z 18010KT 10SM FEW039 SCT075 BKN080 03/M03 A2958 RMK AO2 SLP018 T00281033 $


Station Type Date Time Source
PANC Decoded METAR 2019/11/18 10:53 UTC NOAA

TED STEVENS ANCHORAGE INTERNATIONAL , AK, United States (PANC) 61-10N 150-02W 48M
Nov 18, 2019 - 05:53 AM EST / 2019.11.18 1053 UTC
Wind: from the S (180 degrees) at 12 MPH (10 KT):0
Visibility: 10 mile(s):0
Sky conditions: mostly cloudy
Temperature: 37.0 F (2.8 C)
Dew Point: 26.1 F (-3.3 C)
Relative Humidity: 64%
Pressure (altimeter): 29.58 in. Hg (1001 hPa)
ob: PANC 181053Z 18010KT 10SM FEW039 SCT075 BKN080 03/M03 A2958 RMK AO2 SLP018 T00281033
cycle: 11

Station Type Date Time Source
PANC TAF 2019/11/18 12:45 UTC NOAA

TAF PANC 181143Z 1812/1918 19011KT P6SM SCT070
FM190400 35007KT P6SM BKN080
FM191500 36011KT P6SM -SN SCT025 OVC050

Example: see airport list